Time;durP1;ratioP1;P1;durP2;ratioP2;P2;SDS_P1;SDS_P2;PMS_P1;PMS_P2;Temp;Humidity;BMP_temperature;BMP_pressure;BME280_temperature;BME280_humidity;BME280_pressure;Samples;Min_cycle;Max_cycle;Signal;HPM_P1;HPM_P2
2022/03/13 00:00:54;;;;;;;;;;;;;;;-6.10;62.02;96263.25;5117175;28;1019;-49
2022/03/13 00:03:22;;;;;;;;;;;;;;;-5.86;61.41;96264.41;5116892;28;1028;-49
2022/03/13 00:05:49;;;;;;;;;;;;;;;-5.95;61.53;96257.66;5117033;28;1114;-49
2022/03/13 00:08:22;;;;;;;;;;;;;;;-5.98;61.65;96260.34;5116847;28;1036;-49
2022/03/13 00:10:56;;;;;;;;;;;;;;;-6.02;62.21;96269.13;5116935;28;1039;-49
2022/03/13 00:13:24;;;;;;;;;;;;;;;-6.29;61.88;96268.81;5116814;28;1076;-49
2022/03/13 00:15:51;;;;;;;;;;;;;;;-6.56;62.30;96262.44;5117054;28;1063;-49
2022/03/13 00:18:18;;;;;;;;;;;;;;;-6.70;62.50;96259.25;5116643;28;1986;-49
2022/03/13 00:20:44;;;;;;;;;;;;;;;-6.74;62.75;96255.84;5116597;28;1004;-49
2022/03/13 00:23:12;;;;;;;;;;;;;;;-6.81;63.69;96253.41;5117005;28;1038;-49
2022/03/13 00:25:39;;;;;;;;;;;;;;;-6.57;63.13;96250.31;5131742;27;2827;-49
2022/03/13 00:28:07;;;;;;;;;;;;;;;-6.24;62.75;96254.84;5137295;27;956;-49
2022/03/13 00:30:35;;;;;;;;;;;;;;;-6.10;61.83;96255.41;5137164;27;976;-49
2022/03/13 00:33:01;;;;;;;;;;;;;;;-6.49;62.19;96253.63;5137065;27;987;-49
2022/03/13 00:35:28;;;;;;;;;;;;;;;-6.92;63.05;96249.28;5137295;27;1134;-48
2022/03/13 00:37:55;;;;;;;;;;;;;;;-6.73;63.66;96246.31;5136986;27;1996;-49
2022/03/13 00:40:21;;;;;;;;;;;;;;;-6.54;63.60;96252.88;5137238;27;964;-49
2022/03/13 00:42:48;;;;;;;;;;;;;;;-6.35;64.38;96268.13;5136625;27;1039;-49
2022/03/13 00:45:14;;;;;;;;;;;;;;;-6.22;62.73;96256.56;5136763;27;1040;-49
2022/03/13 00:47:40;;;;;;;;;;;;;;;-6.39;61.53;96254.31;5136610;27;1083;-48
2022/03/13 00:50:07;;;;;;;;;;;;;;;-6.86;62.43;96245.69;5137057;27;999;-49
2022/03/13 00:52:33;;;;;;;;;;;;;;;-6.82;63.12;96246.50;5118449;27;1164;-49
2022/03/13 00:54:59;;;;;;;;;;;;;;;-6.93;63.49;96251.91;5115989;28;1031;-49
2022/03/13 00:57:25;;;;;;;;;;;;;;;-7.01;63.21;96239.03;5116240;28;1031;-49
2022/03/13 00:59:51;;;;;;;;;;;;;;;-7.04;63.61;96238.25;5115962;28;1971;-49
2022/03/13 01:02:17;;;;;;;;;;;;;;;-7.15;63.66;96241.03;5116023;28;1141;-49
2022/03/13 01:04:43;;;;;;;;;;;;;;;-6.95;63.88;96240.66;5115833;28;1079;-49
2022/03/13 01:07:09;;;;;;;;;;;;;;;-6.80;63.59;96247.31;5115858;28;1067;-49
2022/03/13 01:09:36;;;;;;;;;;;;;;;-6.71;62.81;96241.94;5115716;28;954;-49
2022/03/13 01:12:03;;;;;;;;;;;;;;;-6.99;62.65;96234.66;5115926;28;1039;-49
2022/03/13 01:14:32;;;;;;;;;;;;;;;-7.12;63.62;96239.22;5115776;28;1048;-49
2022/03/13 01:17:06;;;;;;;;;;;;;;;-7.04;63.21;96239.09;5115738;28;1040;-49
2022/03/13 01:19:32;;;;;;;;;;;;;;;-7.13;63.81;96234.94;5115317;28;1906;-49
2022/03/13 01:21:59;;;;;;;;;;;;;;;-7.27;63.38;96242.09;5115520;28;1850;-49
2022/03/13 01:24:28;;;;;;;;;;;;;;;-7.50;63.76;96239.91;5120345;27;2951;-49
2022/03/13 01:26:56;;;;;;;;;;;;;;;-7.50;64.18;96234.72;5136012;27;944;-49
2022/03/13 01:29:23;;;;;;;;;;;;;;;-7.14;63.33;96235.81;5135770;27;1055;-49
2022/03/13 01:31:49;;;;;;;;;;;;;;;-7.02;63.06;96231.25;5135789;27;1039;-49
2022/03/13 01:34:44;;;;;;;;;;;;;;;-7.22;63.16;96235.09;5135901;27;1032;-49
2022/03/13 01:37:15;;;;;;;;;;;;;;;-7.54;64.11;96225.25;5122641;27;1235;-49
2022/03/13 01:39:42;;;;;;;;;;;;;;;-7.44;64.11;96220.75;5135550;27;1960;-49
2022/03/13 01:42:08;;;;;;;;;;;;;;;-7.48;63.98;96217.34;5134620;27;980;-49
2022/03/13 01:44:34;;;;;;;;;;;;;;;-7.58;64.22;96210.63;5135609;27;999;-49
2022/03/13 01:47:01;;;;;;;;;;;;;;;-7.78;64.36;96210.94;5135483;27;1102;-49
2022/03/13 01:49:27;;;;;;;;;;;;;;;-7.74;64.36;96207.41;5135776;27;1043;-48
2022/03/13 01:51:53;;;;;;;;;;;;;;;-7.86;65.13;96213.66;5123009;27;1184;-48
2022/03/13 01:54:20;;;;;;;;;;;;;;;-7.50;64.95;96208.72;5114898;28;1590;-49
2022/03/13 01:56:47;;;;;;;;;;;;;;;-7.17;64.18;96217.69;5114936;28;1066;-49
2022/03/13 01:59:17;;;;;;;;;;;;;;;-6.98;63.46;96215.59;5114912;28;1938;-49
2022/03/13 02:01:44;;;;;;;;;;;;;;;-6.98;63.95;96218.19;5114732;28;1027;-49
2022/03/13 02:04:12;;;;;;;;;;;;;;;-7.15;64.09;96220.22;5114690;28;1071;-49
2022/03/13 02:06:39;;;;;;;;;;;;;;;-7.19;63.21;96221.19;5114975;28;967;-49
2022/03/13 02:09:07;;;;;;;;;;;;;;;-7.27;63.45;96221.31;5114606;28;1026;-49
2022/03/13 02:11:40;;;;;;;;;;;;;;;-7.26;64.18;96220.44;5114822;28;1045;-49
2022/03/13 02:14:07;;;;;;;;;;;;;;;-7.40;63.44;96218.06;5113926;28;1003;-49
2022/03/13 02:16:33;;;;;;;;;;;;;;;-7.62;64.08;96214.16;5114460;28;1609;-49
2022/03/13 02:19:00;;;;;;;;;;;;;;;-7.47;64.85;96213.88;5114258;28;2001;-49
2022/03/13 02:21:28;;;;;;;;;;;;;;;-7.31;64.75;96217.91;5114642;28;946;-49
2022/03/13 02:23:55;;;;;;;;;;;;;;;-7.50;64.10;96214.78;5115130;27;3070;-49
2022/03/13 02:26:21;;;;;;;;;;;;;;;-7.80;64.77;96210.09;5133650;27;1056;-49
2022/03/13 02:28:54;;;;;;;;;;;;;;;-7.71;64.87;96212.56;5134913;27;987;-49
2022/03/13 02:31:26;;;;;;;;;;;;;;;-7.63;63.93;96212.41;5135153;27;928;-49
2022/03/13 02:33:53;;;;;;;;;;;;;;;-7.52;64.54;96210.50;5134764;27;1135;-49
2022/03/13 02:36:31;;;;;;;;;;;;;;;-7.43;64.10;96215.53;5134767;27;1027;-49
2022/03/13 02:39:01;;;;;;;;;;;;;;;-7.94;64.33;96208.59;5134795;27;2012;-48
2022/03/13 02:41:27;;;;;;;;;;;;;;;-8.00;65.75;96216.47;5133217;27;988;-48
2022/03/13 02:43:54;;;;;;;;;;;;;;;-7.82;65.30;96212.72;5134348;27;1978;-48
2022/03/13 02:46:21;;;;;;;;;;;;;;;-7.80;64.40;96217.88;5134696;27;999;-48
2022/03/13 02:48:51;;;;;;;;;;;;;;;-7.76;64.71;96212.59;5134690;27;1032;-47
2022/03/13 02:51:17;;;;;;;;;;;;;;;-7.92;64.25;96217.19;5126671;27;1168;-48
2022/03/13 02:53:44;;;;;;;;;;;;;;;-8.30;65.12;96226.41;5113995;28;1039;-48
2022/03/13 02:56:10;;;;;;;;;;;;;;;-8.33;65.83;96221.25;5113932;28;1239;-48
2022/03/13 02:58:36;;;;;;;;;;;;;;;-7.93;65.76;96220.69;5114041;28;1991;-48
2022/03/13 03:01:03;;;;;;;;;;;;;;;-7.62;64.43;96219.34;5113775;28;1028;-48
2022/03/13 03:03:29;;;;;;;;;;;;;;;-7.90;63.86;96222.38;5113730;28;1027;-48
2022/03/13 03:05:55;;;;;;;;;;;;;;;-8.36;64.75;96229.09;5113612;28;1023;-48
2022/03/13 03:08:22;;;;;;;;;;;;;;;-8.58;65.63;96235.47;5113805;28;976;-48
2022/03/13 03:10:48;;;;;;;;;;;;;;;-8.64;66.00;96236.41;5113765;28;967;-47
2022/03/13 03:13:15;;;;;;;;;;;;;;;-8.35;65.88;96238.56;5113779;28;1044;-48
2022/03/13 03:15:41;;;;;;;;;;;;;;;-7.95;64.56;96235.41;5113398;28;1023;-48
2022/03/13 03:18:12;;;;;;;;;;;;;;;-7.93;64.80;96235.38;5113719;28;1991;-48
2022/03/13 03:20:38;;;;;;;;;;;;;;;-8.22;64.79;96234.09;5113549;28;1373;-48
2022/03/13 03:23:05;;;;;;;;;;;;;;;-8.43;65.05;96230.09;5113837;28;1047;-48
2022/03/13 03:25:31;;;;;;;;;;;;;;;-8.64;66.01;96231.22;5128239;27;2807;-48
2022/03/13 03:27:58;;;;;;;;;;;;;;;-8.35;65.77;96227.34;5138565;27;1043;-48
2022/03/13 03:30:26;;;;;;;;;;;;;;;-8.14;65.13;96223.59;5138058;27;1023;-48
2022/03/13 03:32:52;;;;;;;;;;;;;;;-8.13;64.51;96227.91;5138445;27;1044;-48
2022/03/13 03:35:19;;;;;;;;;;;;;;;-8.01;64.99;96237.25;5138157;27;1027;-48
2022/03/13 03:37:46;;;;;;;;;;;;;;;-7.97;64.22;96239.78;5138155;27;1909;-48
2022/03/13 03:40:12;;;;;;;;;;;;;;;-8.16;65.41;96227.94;5138294;27;957;-48
2022/03/13 03:42:40;;;;;;;;;;;;;;;-7.98;65.69;96232.03;5138241;27;1031;-48
2022/03/13 03:45:07;;;;;;;;;;;;;;;-7.78;64.42;96227.34;5137842;27;1087;-48
2022/03/13 03:47:33;;;;;;;;;;;;;;;-7.88;63.99;96220.59;5138231;27;1231;-48
2022/03/13 03:50:00;;;;;;;;;;;;;;;-8.17;64.64;96221.06;5137887;27;1979;-48
2022/03/13 03:52:26;;;;;;;;;;;;;;;-8.14;65.85;96219.25;5120430;27;1144;-48
2022/03/13 03:54:52;;;;;;;;;;;;;;;-8.17;65.81;96218.47;5117242;28;1094;-48
2022/03/13 03:57:19;;;;;;;;;;;;;;;-8.17;65.83;96227.09;5117318;28;1013;-48
2022/03/13 03:59:45;;;;;;;;;;;;;;;-8.15;65.84;96233.13;5117298;28;987;-48
2022/03/13 04:02:11;;;;;;;;;;;;;;;-8.00;65.49;96233.78;5117055;28;1956;-48
2022/03/13 04:04:39;;;;;;;;;;;;;;;-7.95;65.23;96224.19;5117165;28;1019;-48
2022/03/13 04:07:05;;;;;;;;;;;;;;;-7.99;65.33;96230.31;5117034;28;961;-48
2022/03/13 04:09:31;;;;;;;;;;;;;;;-7.90;65.59;96222.38;5117178;28;1914;-48
2022/03/13 04:11:58;;;;;;;;;;;;;;;-7.89;65.49;96227.56;5116757;28;1055;-48
2022/03/13 04:14:25;;;;;;;;;;;;;;;-7.68;65.27;96235.88;5117035;28;1040;-48
2022/03/13 04:16:53;;;;;;;;;;;;;;;-7.57;64.81;96225.31;5116979;28;1019;-48
2022/03/13 04:19:20;;;;;;;;;;;;;;;-7.69;64.87;96229.81;5116648;28;1095;-48
2022/03/13 04:21:46;;;;;;;;;;;;;;;-7.92;64.57;96237.13;5116634;28;1083;-48
2022/03/13 04:24:12;;;;;;;;;;;;;;;-8.14;65.06;96232.22;5120008;27;2878;-48
2022/03/13 04:26:42;;;;;;;;;;;;;;;-8.41;65.62;96236.06;5137409;27;1007;-48
2022/03/13 04:29:10;;;;;;;;;;;;;;;-8.52;66.15;96228.47;5137114;27;1918;-48
2022/03/13 04:31:37;;;;;;;;;;;;;;;-8.40;66.47;96234.34;5137229;27;1019;-48
2022/03/13 04:34:04;;;;;;;;;;;;;;;-8.29;65.93;96237.63;5137377;27;969;-48
2022/03/13 04:36:33;;;;;;;;;;;;;;;-8.41;65.92;96230.88;5136286;27;916;-48
2022/03/13 04:39:01;;;;;;;;;;;;;;;-8.30;66.08;96230.75;5136957;27;1119;-48
2022/03/13 04:41:27;;;;;;;;;;;;;;;-8.27;66.12;96235.88;5137197;27;1051;-48
2022/03/13 04:43:54;;;;;;;;;;;;;;;-8.17;65.23;96241.81;5136572;27;1028;-48
2022/03/13 04:46:20;;;;;;;;;;;;;;;-8.33;66.10;96246.34;5137029;27;976;-48
2022/03/13 04:48:47;;;;;;;;;;;;;;;-8.37;66.19;96250.72;5136721;27;1996;-47
2022/03/13 04:51:13;;;;;;;;;;;;;;;-8.31;66.20;96255.84;5130000;27;1168;-47
2022/03/13 04:53:39;;;;;;;;;;;;;;;-8.10;66.11;96259.88;5116317;28;1038;-48
2022/03/13 04:56:05;;;;;;;;;;;;;;;-7.82;65.46;96256.84;5116319;28;1021;-48
2022/03/13 04:58:31;;;;;;;;;;;;;;;-7.71;65.45;96259.28;5116168;28;1056;-48
2022/03/13 05:00:57;;;;;;;;;;;;;;;-7.64;65.08;96255.72;5116013;28;1086;-48
2022/03/13 05:03:23;;;;;;;;;;;;;;;-7.71;65.49;96252.34;5115855;28;1867;-48
2022/03/13 05:05:50;;;;;;;;;;;;;;;-7.70;65.87;96250.59;5115953;28;991;-48
2022/03/13 05:08:16;;;;;;;;;;;;;;;-7.65;65.97;96257.44;5115731;28;1989;-48
2022/03/13 05:10:43;;;;;;;;;;;;;;;-7.62;66.44;96259.16;5116169;28;1025;-48
2022/03/13 05:13:14;;;;;;;;;;;;;;;-7.63;65.94;96246.19;5115563;28;1131;-48
2022/03/13 05:15:41;;;;;;;;;;;;;;;-7.57;66.21;96256.47;5115887;28;1031;-48
2022/03/13 05:18:07;;;;;;;;;;;;;;;-7.31;65.83;96258.63;5115876;28;954;-48
2022/03/13 05:20:34;;;;;;;;;;;;;;;-7.13;64.68;96252.25;5115573;28;1566;-48
2022/03/13 05:23:01;;;;;;;;;;;;;;;-7.12;64.36;96262.63;5115710;28;1026;-48
2022/03/13 05:25:30;;;;;;;;;;;;;;;-7.26;64.67;96255.09;5129287;27;3021;-48
2022/03/13 05:27:56;;;;;;;;;;;;;;;-7.11;65.10;96259.16;5135698;27;1913;-48
2022/03/13 05:30:22;;;;;;;;;;;;;;;-6.69;63.80;96264.44;5135131;27;1012;-48
2022/03/13 05:32:49;;;;;;;;;;;;;;;-6.54;63.62;96257.22;5135917;27;1036;-48
2022/03/13 05:35:15;;;;;;;;;;;;;;;-6.51;64.45;96260.59;5136182;27;1047;-48
2022/03/13 05:37:42;;;;;;;;;;;;;;;-6.55;63.91;96258.94;5136082;27;959;-48
2022/03/13 05:40:13;;;;;;;;;;;;;;;-6.71;64.66;96263.59;5135816;27;1090;-48
2022/03/13 05:42:40;;;;;;;;;;;;;;;-6.69;64.53;96258.38;5135398;27;1026;-48
2022/03/13 05:45:06;;;;;;;;;;;;;;;-6.69;65.24;96255.78;5135712;27;996;-48
2022/03/13 05:47:32;;;;;;;;;;;;;;;-6.51;64.61;96252.78;5135654;27;1067;-48
2022/03/13 05:50:00;;;;;;;;;;;;;;;-6.37;64.36;96260.34;5134950;27;1981;-48
2022/03/13 05:52:26;;;;;;;;;;;;;;;-6.22;63.56;96266.97;5118153;27;1282;-48
2022/03/13 05:54:52;;;;;;;;;;;;;;;-5.97;62.68;96261.22;5114807;28;1032;-48
2022/03/13 05:57:18;;;;;;;;;;;;;;;-5.49;62.10;96268.75;5115101;28;1015;-48
2022/03/13 05:59:44;;;;;;;;;;;;;;;-5.17;60.33;96261.91;5114959;28;1101;-48
2022/03/13 06:02:10;;;;;;;;;;;;;;;-4.73;58.28;96268.53;5114831;28;1060;-48
2022/03/13 06:04:36;;;;;;;;;;;;;;;-4.47;58.75;96269.59;5113791;28;1051;-48
2022/03/13 06:07:04;;;;;;;;;;;;;;;-4.44;56.86;96266.03;5114925;28;996;-48
2022/03/13 06:09:30;;;;;;;;;;;;;;;-4.27;56.65;96266.41;5114615;28;1992;-48
2022/03/13 06:11:56;;;;;;;;;;;;;;;-3.93;55.46;96268.91;5114638;28;968;-48
2022/03/13 06:14:23;;;;;;;;;;;;;;;-3.84;55.09;96267.75;5114481;28;1079;-48
2022/03/13 06:16:49;;;;;;;;;;;;;;;-3.68;54.02;96270.78;5114535;28;1272;-48
2022/03/13 06:19:15;;;;;;;;;;;;;;;-3.58;52.48;96269.56;5114100;28;1080;-48
2022/03/13 06:21:42;;;;;;;;;;;;;;;-3.61;52.95;96259.19;5114612;28;1024;-48
2022/03/13 06:24:08;;;;;;;;;;;;;;;-3.63;54.20;96270.63;5116870;27;2918;-48
2022/03/13 06:26:34;;;;;;;;;;;;;;;-3.21;54.00;96263.16;5134842;27;1092;-48
2022/03/13 06:29:00;;;;;;;;;;;;;;;-2.77;51.42;96268.66;5134642;27;1994;-48
2022/03/13 06:31:27;;;;;;;;;;;;;;;-2.68;51.46;96267.47;5134661;27;1072;-48
2022/03/13 06:33:53;;;;;;;;;;;;;;;-2.44;52.35;96278.00;5134662;27;1019;-48
2022/03/13 06:36:19;;;;;;;;;;;;;;;-2.33;51.63;96278.50;5134998;27;959;-48
2022/03/13 06:38:45;;;;;;;;;;;;;;;-2.44;50.90;96276.25;5134823;27;1223;-48
2022/03/13 06:41:11;;;;;;;;;;;;;;;-2.56;50.84;96274.91;5134921;27;1067;-48
2022/03/13 06:43:37;;;;;;;;;;;;;;;-2.46;49.41;96282.47;5134268;27;1011;-48
2022/03/13 06:46:03;;;;;;;;;;;;;;;-2.27;50.40;96280.88;5134517;27;969;-48
2022/03/13 06:48:31;;;;;;;;;;;;;;;-1.66;47.66;96271.63;5133966;27;1983;-47
2022/03/13 06:50:57;;;;;;;;;;;;;;;-0.56;45.01;96273.28;5129946;27;1251;-48
2022/03/13 06:53:24;;;;;;;;;;;;;;;-1.07;45.76;96278.03;5113987;28;1027;-48
2022/03/13 06:55:53;;;;;;;;;;;;;;;-1.50;47.21;96272.75;5113735;28;1007;-48
2022/03/13 06:58:19;;;;;;;;;;;;;;;-1.64;47.68;96282.91;5114171;28;959;-48
2022/03/13 07:00:46;;;;;;;;;;;;;;;-1.36;47.22;96276.59;5113367;28;1300;-48
2022/03/13 07:03:13;;;;;;;;;;;;;;;-0.34;46.71;96266.19;5114080;28;1018;-48
2022/03/13 07:05:40;;;;;;;;;;;;;;;1.64;42.67;96276.94;5113903;28;1024;-48
2022/03/13 07:08:07;;;;;;;;;;;;;;;3.59;39.30;96267.94;5113571;28;1894;-48
2022/03/13 07:10:33;;;;;;;;;;;;;;;5.93;35.33;96273.38;5113675;28;1087;-49
2022/03/13 07:12:59;;;;;;;;;;;;;;;7.51;31.59;96262.09;5113679;28;956;-48
2022/03/13 07:15:27;;;;;;;;;;;;;;;8.72;30.10;96261.69;5113836;28;932;-49
2022/03/13 07:17:54;;;;;;;;;;;;;;;10.85;27.10;96263.47;5113885;28;965;-50
2022/03/13 07:20:20;;;;;;;;;;;;;;;11.98;24.98;96262.25;5113454;28;1080;-49
2022/03/13 07:22:46;;;;;;;;;;;;;;;12.90;24.22;96250.84;5113912;28;980;-49
2022/03/13 07:25:13;;;;;;;;;;;;;;;10.82;25.52;96251.22;5125089;28;3115;-49
2022/03/13 07:27:40;;;;;;;;;;;;;;;6.22;31.17;96247.50;5134016;27;1036;-49
2022/03/13 07:30:07;;;;;;;;;;;;;;;7.47;30.87;96246.47;5133771;27;1918;-48
2022/03/13 07:32:34;;;;;;;;;;;;;;;12.09;25.42;96246.00;5134361;27;1163;-49
2022/03/13 07:35:00;;;;;;;;;;;;;;;15.08;22.03;96254.03;5134038;28;960;-50
2022/03/13 07:37:26;;;;;;;;;;;;;;;16.81;20.05;96253.19;5133987;27;1028;-50
2022/03/13 07:39:53;;;;;;;;;;;;;;;18.16;18.93;96257.59;5134092;28;1027;-50
2022/03/13 07:42:19;;;;;;;;;;;;;;;18.37;17.55;96244.22;5133803;27;1081;-50
2022/03/13 07:44:45;;;;;;;;;;;;;;;19.29;17.79;96252.06;5133693;27;1035;-50
2022/03/13 07:47:11;;;;;;;;;;;;;;;19.93;16.80;96250.53;5134241;27;1091;-50
2022/03/13 07:49:37;;;;;;;;;;;;;;;20.48;16.88;96251.66;5133951;27;1990;-50
2022/03/13 07:52:04;;;;;;;;;;;;;;;20.33;16.33;96248.19;5119881;27;1176;-50
2022/03/13 07:54:30;;;;;;;;;;;;;;;20.68;16.12;96240.16;5113495;28;1044;-50
2022/03/13 07:56:56;;;;;;;;;;;;;;;20.74;15.65;96243.97;5113555;28;1235;-51
2022/03/13 07:59:22;;;;;;;;;;;;;;;20.66;16.24;96240.34;5113444;28;1059;-50
2022/03/13 08:01:49;;;;;;;;;;;;;;;20.77;16.35;96236.25;5113213;28;1043;-50
2022/03/13 08:04:16;;;;;;;;;;;;;;;21.41;15.64;96231.56;5113335;28;1260;-50
2022/03/13 08:06:42;;;;;;;;;;;;;;;21.64;15.27;96220.38;5113143;28;1024;-50
2022/03/13 08:09:09;;;;;;;;;;;;;;;21.95;15.63;96216.25;5113185;28;1918;-50
2022/03/13 08:11:36;;;;;;;;;;;;;;;21.81;15.51;96215.41;5113640;28;1040;-50
2022/03/13 08:14:02;;;;;;;;;;;;;;;21.96;15.66;96220.69;5116650;28;1987;-50
2022/03/13 08:16:29;;;;;;;;;;;;;;;22.59;15.26;96223.91;5116764;28;1256;-50
2022/03/13 08:18:55;;;;;;;;;;;;;;;22.88;15.03;96216.31;5116539;28;2043;-50
2022/03/13 08:21:21;;;;;;;;;;;;;;;22.88;14.59;96210.88;5116584;28;1079;-50
2022/03/13 08:23:47;;;;;;;;;;;;;;;22.41;15.62;96212.78;5117048;28;1026;-50
2022/03/13 08:26:13;;;;;;;;;;;;;;;23.14;15.10;96196.34;5136877;27;2863;-50
2022/03/13 08:28:41;;;;;;;;;;;;;;;24.94;12.66;96203.41;5137554;27;976;-50
2022/03/13 08:31:07;;;;;;;;;;;;;;;24.04;12.92;96208.34;5137195;27;1014;-50
2022/03/13 08:33:33;;;;;;;;;;;;;;;23.82;13.61;96205.94;5137178;27;1071;-50
2022/03/13 08:36:00;;;;;;;;;;;;;;;23.94;13.76;96200.63;5137288;27;1171;-50
2022/03/13 08:38:26;;;;;;;;;;;;;;;23.37;14.31;96201.31;5137188;27;1914;-50
2022/03/13 08:40:52;;;;;;;;;;;;;;;23.02;13.91;96210.84;5135663;27;1019;-51
2022/03/13 08:43:19;;;;;;;;;;;;;;;20.45;15.56;96200.47;5136718;27;1054;-50
2022/03/13 08:45:45;;;;;;;;;;;;;;;17.91;17.63;96201.81;5136989;27;1036;-50
2022/03/13 08:48:13;;;;;;;;;;;;;;;14.86;20.35;96194.38;5137062;27;1246;-49
2022/03/13 08:50:39;;;;;;;;;;;;;;;13.56;22.31;96195.16;5134815;27;1156;-49
2022/03/13 08:53:05;;;;;;;;;;;;;;;12.58;23.20;96186.88;5116143;28;1090;-50
2022/03/13 08:55:31;;;;;;;;;;;;;;;11.89;24.17;96184.41;5116009;28;1066;-49
2022/03/13 08:57:57;;;;;;;;;;;;;;;11.51;22.81;96183.44;5116318;28;1909;-49
2022/03/13 09:00:24;;;;;;;;;;;;;;;11.20;24.62;96184.53;5116319;28;959;-49
2022/03/13 09:02:50;;;;;;;;;;;;;;;11.24;24.67;96184.13;5116242;28;1036;-49
2022/03/13 09:05:16;;;;;;;;;;;;;;;11.78;24.09;96176.50;5115934;28;1028;-49
2022/03/13 09:07:43;;;;;;;;;;;;;;;11.66;24.16;96174.94;5115980;28;991;-49
2022/03/13 09:10:09;;;;;;;;;;;;;;;11.85;24.67;96163.34;5115811;28;1031;-49
2022/03/13 09:12:35;;;;;;;;;;;;;;;11.85;23.55;96163.34;5115747;28;1020;-49
2022/03/13 09:15:02;;;;;;;;;;;;;;;11.58;23.64;96158.75;5115970;28;988;-49
2022/03/13 09:17:29;;;;;;;;;;;;;;;11.74;23.95;96153.63;5115561;28;925;-49
2022/03/13 09:23:16;;;;;;;;;;;;;;;11.36;22.87;96141.13;4606448;28;2082;-49
2022/03/13 09:25:43;;;;;;;;;;;;;;;11.20;24.82;96141.72;5132976;27;2547;-49
2022/03/13 09:28:09;;;;;;;;;;;;;;;10.99;25.30;96141.84;5135946;27;1128;-49
2022/03/13 09:30:36;;;;;;;;;;;;;;;10.58;23.63;96135.72;5136202;27;1068;-49
2022/03/13 09:33:02;;;;;;;;;;;;;;;10.23;23.79;96131.63;5135760;27;1083;-49
2022/03/13 09:35:28;;;;;;;;;;;;;;;9.76;25.45;96140.13;5136193;27;1043;-49
2022/03/13 09:37:54;;;;;;;;;;;;;;;9.86;26.46;96125.00;5135624;27;1905;-49
2022/03/13 09:40:20;;;;;;;;;;;;;;;9.61;26.51;96131.59;5136319;27;1036;-49
2022/03/13 09:42:47;;;;;;;;;;;;;;;9.23;25.55;96122.34;5134208;27;1016;-49
2022/03/13 09:45:13;;;;;;;;;;;;;;;8.78;26.50;96112.75;5135820;27;964;-49
2022/03/13 09:47:39;;;;;;;;;;;;;;;8.87;27.11;96110.28;5135633;27;1026;-49
2022/03/13 09:50:07;;;;;;;;;;;;;;;8.78;25.40;96106.53;5135607;27;967;-49
2022/03/13 09:52:33;;;;;;;;;;;;;;;8.63;25.46;96105.97;5135668;27;1173;-50
2022/03/13 09:55:00;;;;;;;;;;;;;;;8.64;24.47;96099.69;5135646;27;969;-49
2022/03/13 09:57:26;;;;;;;;;;;;;;;8.97;25.68;96098.72;5135279;27;1040;-49
2022/03/13 09:59:53;;;;;;;;;;;;;;;8.83;24.55;96104.34;5135550;27;1914;-49
2022/03/13 10:02:19;;;;;;;;;;;;;;;9.06;26.82;96099.75;5135401;27;1042;-49
2022/03/13 10:04:45;;;;;;;;;;;;;;;8.99;25.46;96098.56;5135277;27;952;-49
2022/03/13 10:07:12;;;;;;;;;;;;;;;8.94;25.04;96093.63;5135141;27;1099;-49
2022/03/13 10:09:39;;;;;;;;;;;;;;;8.86;24.86;96087.22;5135372;27;980;-49
2022/03/13 10:12:08;;;;;;;;;;;;;;;9.11;24.68;96081.53;5134985;27;1048;-49
2022/03/13 10:14:38;;;;;;;;;;;;;;;8.96;25.17;96080.16;5135319;27;1027;-49
2022/03/13 10:17:25;;;;;;;;;;;;;;;9.10;25.73;96076.34;5134936;27;1138;-49
2022/03/13 10:19:51;;;;;;;;;;;;;;;9.77;25.71;96083.91;5134963;27;1984;-49
2022/03/13 10:22:18;;;;;;;;;;;;;;;9.54;24.54;96080.56;5134548;27;1304;-49
2022/03/13 10:24:46;;;;;;;;;;;;;;;9.19;25.88;96073.72;5134697;27;3028;-49
2022/03/13 10:27:13;;;;;;;;;;;;;;;8.86;24.24;96072.09;5134912;27;1019;-49
2022/03/13 10:29:40;;;;;;;;;;;;;;;8.66;25.47;96068.41;5134945;27;1090;-49
2022/03/13 10:32:06;;;;;;;;;;;;;;;8.73;23.95;96063.44;5134626;27;1051;-49
2022/03/13 10:34:33;;;;;;;;;;;;;;;8.79;25.80;96057.56;5134383;27;1463;-49
2022/03/13 10:37:01;;;;;;;;;;;;;;;9.47;24.92;96052.69;5134841;27;905;-49
2022/03/13 10:39:27;;;;;;;;;;;;;;;9.93;24.87;96040.66;5134866;27;1987;-49
2022/03/13 10:42:02;;;;;;;;;;;;;;;9.55;23.70;96042.19;5134371;27;1102;-49
2022/03/13 10:44:31;;;;;;;;;;;;;;;9.32;23.12;96038.00;5134586;27;1040;-49
2022/03/13 10:46:58;;;;;;;;;;;;;;;9.45;23.94;96029.78;5134717;27;941;-49
2022/03/13 10:49:32;;;;;;;;;;;;;;;9.49;24.92;96016.03;5134617;27;1032;-49
2022/03/13 10:51:59;;;;;;;;;;;;;;;9.84;25.36;96017.44;5119887;27;1192;-49
2022/03/13 10:54:25;;;;;;;;;;;;;;;10.02;24.49;96019.47;5113897;28;949;-50
2022/03/13 10:57:05;;;;;;;;;;;;;;;10.00;24.87;96011.59;5113851;28;1027;-50
2022/03/13 10:59:31;;;;;;;;;;;;;;;9.33;22.66;96016.53;5113957;28;1902;-49
2022/03/13 11:02:16;;;;;;;;;;;;;;;9.17;25.15;96003.63;5114061;28;1027;-49
2022/03/13 11:04:47;;;;;;;;;;;;;;;9.01;23.39;96000.63;5114193;28;987;-49
2022/03/13 11:07:13;;;;;;;;;;;;;;;9.26;24.56;96004.69;5114053;28;1016;-49
2022/03/13 11:09:39;;;;;;;;;;;;;;;9.33;23.95;95991.63;5113988;28;1051;-49
2022/03/13 11:12:09;;;;;;;;;;;;;;;9.02;24.64;95996.94;5113471;28;1036;-50
2022/03/13 11:14:35;;;;;;;;;;;;;;;8.91;23.51;95989.00;5113883;28;974;-49
2022/03/13 11:17:02;;;;;;;;;;;;;;;8.86;25.15;95984.09;5113723;28;2003;-49
2022/03/13 11:19:29;;;;;;;;;;;;;;;9.11;24.01;95980.16;5113686;28;1910;-49
2022/03/13 11:21:55;;;;;;;;;;;;;;;9.32;23.47;95976.63;5113699;28;1095;-50
2022/03/13 11:24:23;;;;;;;;;;;;;;;9.55;24.63;95972.78;5118965;28;2840;-49
2022/03/13 11:26:51;;;;;;;;;;;;;;;9.52;24.24;95965.06;5134446;27;971;-49
2022/03/13 11:29:36;;;;;;;;;;;;;;;9.19;23.51;95972.34;5134199;27;1043;-49
2022/03/13 11:32:22;;;;;;;;;;;;;;;9.21;23.02;95968.69;5134185;27;1024;-49
2022/03/13 11:35:07;;;;;;;;;;;;;;;9.33;22.79;95965.81;5133962;27;1808;-49
2022/03/13 11:37:33;;;;;;;;;;;;;;;9.22;23.49;95962.38;5133889;27;1109;-49
2022/03/13 11:40:00;;;;;;;;;;;;;;;9.51;23.80;95970.53;5133935;27;1992;-49
2022/03/13 11:42:26;;;;;;;;;;;;;;;9.73;23.55;95969.47;5134186;27;1033;-49
2022/03/13 11:44:52;;;;;;;;;;;;;;;10.24;23.91;95968.44;5133858;27;1016;-49
2022/03/13 11:47:20;;;;;;;;;;;;;;;10.23;21.47;95958.75;5135815;27;1047;-50
2022/03/13 11:49:46;;;;;;;;;;;;;;;9.93;22.72;95957.84;5138056;27;941;-49
2022/03/13 11:52:12;;;;;;;;;;;;;;;9.46;22.52;95954.91;5122862;27;1183;-49
2022/03/13 11:54:53;;;;;;;;;;;;;;;9.30;22.49;95959.91;5117296;28;1031;-50
2022/03/13 11:57:20;;;;;;;;;;;;;;;8.96;21.86;95949.47;5119608;27;1666;-49
2022/03/13 11:59:49;;;;;;;;;;;;;;;8.64;21.85;95954.88;5117255;27;1988;-49
2022/03/13 12:02:34;;;;;;;;;;;;;;;8.65;22.76;95946.75;5120239;27;1714;-49
2022/03/13 12:05:19;;;;;;;;;;;;;;;8.55;21.68;95949.31;5137633;27;1008;-49
2022/03/13 12:08:08;;;;;;;;;;;;;;;8.56;22.33;95942.19;5137700;27;1023;-50
2022/03/13 12:10:41;;;;;;;;;;;;;;;8.73;23.02;95932.78;5137810;27;1107;-49
2022/03/13 12:13:14;;;;;;;;;;;;;;;9.18;23.00;95927.97;5137622;27;1064;-49
2022/03/13 12:15:41;;;;;;;;;;;;;;;9.34;22.93;95926.63;5137595;27;1008;-50
2022/03/13 12:18:21;;;;;;;;;;;;;;;9.30;22.82;95920.72;5137448;27;1984;-50
2022/03/13 12:20:48;;;;;;;;;;;;;;;9.25;22.88;95930.94;5137432;27;1059;-51
2022/03/13 12:23:31;;;;;;;;;;;;;;;9.14;22.07;95925.69;5137248;27;1254;-49
2022/03/13 12:26:16;;;;;;;;;;;;;;;8.92;22.25;95926.72;5136132;27;3122;-51
2022/03/13 12:28:42;;;;;;;;;;;;;;;8.75;23.10;95928.16;5137421;27;1064;-50
2022/03/13 12:31:08;;;;;;;;;;;;;;;8.89;23.95;95921.63;5137461;27;993;-51
2022/03/13 12:33:38;;;;;;;;;;;;;;;8.97;21.92;95914.66;5137580;27;953;-49
2022/03/13 12:36:05;;;;;;;;;;;;;;;9.01;23.69;95914.38;5137062;27;1027;-51
2022/03/13 12:38:32;;;;;;;;;;;;;;;8.75;21.90;95921.00;5137122;27;1992;-50
2022/03/13 12:40:59;;;;;;;;;;;;;;;8.48;22.61;95915.31;5136959;27;1106;-50
2022/03/13 12:43:41;;;;;;;;;;;;;;;8.57;23.44;95919.88;5136932;27;1209;-51
2022/03/13 12:46:09;;;;;;;;;;;;;;;8.57;22.60;95918.09;5137186;27;969;-51
2022/03/13 12:48:37;;;;;;;;;;;;;;;8.45;23.22;95916.44;5137009;27;1011;-51
2022/03/13 12:51:04;;;;;;;;;;;;;;;8.55;21.92;95917.34;5131081;27;1261;-50
2022/03/13 12:53:30;;;;;;;;;;;;;;;8.81;21.95;95905.44;5116262;28;1099;-50
2022/03/13 12:55:57;;;;;;;;;;;;;;;8.80;21.29;95912.59;5116206;28;1020;-50
2022/03/13 12:58:41;;;;;;;;;;;;;;;8.88;22.66;95917.25;5115698;28;1905;-50
2022/03/13 13:01:16;;;;;;;;;;;;;;;8.91;22.98;95909.00;5116191;28;1007;-49
2022/03/13 13:03:49;;;;;;;;;;;;;;;8.69;21.73;95916.19;5116445;28;1037;-50
2022/03/13 13:06:35;;;;;;;;;;;;;;;8.49;22.38;95909.88;5116279;28;1053;-50
2022/03/13 13:09:02;;;;;;;;;;;;;;;8.45;23.55;95913.78;5116068;28;1029;-50